createdAt,value
2023-04-18T00:01:28.946Z,16.40
2023-04-18T00:03:22.063Z,18.90
2023-04-18T00:05:13.825Z,17.70
2023-04-18T00:07:06.698Z,15.50
2023-04-18T00:08:58.444Z,18.30
2023-04-18T00:10:49.877Z,17.10
2023-04-18T00:12:41.292Z,17.80
2023-04-18T00:14:34.723Z,18.20
2023-04-18T00:16:28.387Z,17.00
2023-04-18T00:18:20.082Z,18.30
2023-04-18T00:20:13.138Z,17.10
2023-04-18T00:22:04.800Z,17.90
2023-04-18T00:23:56.336Z,16.50
2023-04-18T00:25:50.721Z,17.40
2023-04-18T00:27:42.278Z,16.70
2023-04-18T00:29:34.104Z,17.60
2023-04-18T00:31:26.176Z,18.60
2023-04-18T00:33:17.900Z,17.60
2023-04-18T00:35:09.703Z,20.40
2023-04-18T00:37:01.758Z,19.80
2023-04-18T00:38:53.150Z,19.70
2023-04-18T00:40:44.775Z,17.60
2023-04-18T00:42:36.672Z,16.00
2023-04-18T00:44:28.429Z,19.50
2023-04-18T00:46:20.248Z,20.10
2023-04-18T00:48:12.112Z,18.80
2023-04-18T00:50:04.392Z,18.50
2023-04-18T00:51:56.185Z,19.20
2023-04-18T00:53:48.010Z,19.20
2023-04-18T00:55:40.738Z,17.40
2023-04-18T00:57:32.599Z,19.50
2023-04-18T00:59:24.398Z,19.60
2023-04-18T01:01:16.250Z,19.90
2023-04-18T01:03:08.688Z,19.60
2023-04-18T01:05:00.517Z,18.40
2023-04-18T01:06:52.323Z,18.20
2023-04-18T01:08:45.085Z,22.20
2023-04-18T01:10:37.472Z,21.70
2023-04-18T01:12:29.074Z,19.40
2023-04-18T01:14:21.041Z,19.60
2023-04-18T01:16:12.356Z,19.80
2023-04-18T01:18:04.081Z,16.60
2023-04-18T01:19:56.805Z,20.00
2023-04-18T01:21:48.593Z,20.00
2023-04-18T01:23:40.450Z,19.70
2023-04-18T01:25:33.358Z,18.40
2023-04-18T01:27:25.396Z,20.40
2023-04-18T01:29:17.319Z,18.80
2023-04-18T01:31:08.926Z,20.30
2023-04-18T01:33:02.367Z,21.00
2023-04-18T01:34:53.957Z,19.50
2023-04-18T01:36:46.425Z,19.90
2023-04-18T01:38:37.971Z,20.40
2023-04-18T01:40:30.332Z,19.20
2023-04-18T01:44:13.897Z,18.30
2023-04-18T01:46:05.913Z,19.80
2023-04-18T01:47:57.733Z,19.70
2023-04-18T01:49:49.688Z,18.30
2023-04-18T01:51:43.188Z,19.40
2023-04-18T01:53:34.821Z,20.80
2023-04-18T01:55:26.661Z,20.30
2023-04-18T01:57:18.398Z,19.70
2023-04-18T01:59:09.654Z,17.40
2023-04-18T02:01:01.605Z,19.40
2023-04-18T02:02:53.700Z,20.20
2023-04-18T02:04:45.481Z,17.80
2023-04-18T02:06:37.419Z,19.00
2023-04-18T02:08:30.926Z,19.20
2023-04-18T02:10:22.816Z,23.00
2023-04-18T02:12:14.605Z,20.40
2023-04-18T02:14:06.796Z,20.50
2023-04-18T02:15:58.468Z,21.40
2023-04-18T02:17:50.684Z,20.10
2023-04-18T02:19:42.982Z,18.40
2023-04-18T02:21:34.825Z,19.50
2023-04-18T02:23:26.126Z,17.10
2023-04-18T02:25:18.736Z,17.60
2023-04-18T02:27:11.203Z,21.10
2023-04-18T02:29:03.124Z,17.90
2023-04-18T02:30:54.844Z,19.80
2023-04-18T02:32:47.166Z,18.50
2023-04-18T02:34:39.568Z,20.80
2023-04-18T02:36:31.081Z,19.70
2023-04-18T02:38:22.892Z,19.20
2023-04-18T02:40:14.892Z,19.30
2023-04-18T02:42:06.580Z,17.40
2023-04-18T02:43:59.164Z,18.40
2023-04-18T02:45:50.949Z,18.60
2023-04-18T02:47:51.728Z,16.40
2023-04-18T02:49:46.785Z,17.40
2023-04-18T02:51:38.665Z,17.30
2023-04-18T02:53:30.663Z,14.50
2023-04-18T02:55:22.684Z,18.30
2023-04-18T02:57:14.740Z,14.30
2023-04-18T02:59:07.248Z,14.70
2023-04-18T03:00:59.103Z,16.50
2023-04-18T03:02:50.941Z,14.30
2023-04-18T03:04:42.790Z,16.50
2023-04-18T03:06:34.574Z,14.50
2023-04-18T03:08:26.441Z,16.50
2023-04-18T03:10:18.355Z,14.50
2023-04-18T03:12:09.799Z,16.10
2023-04-18T03:14:01.442Z,15.60
2023-04-18T03:15:53.105Z,15.10
2023-04-18T03:17:44.584Z,15.70
2023-04-18T03:19:36.446Z,13.40
2023-04-18T03:21:28.125Z,14.50
2023-04-18T03:23:19.565Z,15.90
2023-04-18T03:25:11.446Z,18.80
2023-04-18T03:27:03.164Z,15.50
2023-04-18T03:28:54.879Z,13.70
2023-04-18T03:30:46.700Z,14.20
2023-04-18T03:32:38.697Z,14.90
2023-04-18T03:34:30.588Z,15.80
2023-04-18T03:36:25.449Z,14.40
2023-04-18T03:38:17.121Z,16.60
2023-04-18T03:40:09.296Z,15.40
2023-04-18T03:42:02.146Z,14.20
2023-04-18T03:43:53.713Z,15.30
2023-04-18T03:45:47.443Z,16.10
2023-04-18T03:47:39.272Z,16.00
2023-04-18T03:49:31.054Z,12.20
2023-04-18T03:51:22.941Z,16.10
2023-04-18T03:53:15.040Z,13.90
2023-04-18T03:55:07.084Z,14.80
2023-04-18T03:56:59.729Z,12.30
2023-04-18T03:58:51.650Z,14.80
2023-04-18T04:00:43.271Z,15.70
2023-04-18T04:02:34.724Z,11.70
2023-04-18T04:04:26.613Z,15.20
2023-04-18T04:06:18.732Z,19.40
2023-04-18T04:08:10.240Z,15.60
2023-04-18T04:10:01.683Z,13.50
2023-04-18T04:11:53.497Z,15.50
2023-04-18T04:13:44.902Z,15.10
2023-04-18T04:15:38.514Z,17.90
2023-04-18T04:17:30.160Z,18.70
2023-04-18T04:19:22.061Z,15.30
2023-04-18T04:21:13.371Z,15.70
2023-04-18T04:23:06.294Z,14.40
2023-04-18T04:24:57.874Z,16.50
2023-04-18T04:26:53.125Z,16.60
2023-04-18T04:28:46.743Z,15.30
2023-04-18T04:30:41.731Z,16.70
2023-04-18T04:32:33.320Z,16.40
2023-04-18T04:34:24.751Z,17.60
2023-04-18T04:36:18.835Z,14.90
2023-04-18T04:38:12.781Z,15.10
2023-04-18T04:40:06.233Z,18.90
2023-04-18T04:41:58.024Z,16.10
2023-04-18T04:43:51.315Z,16.70
2023-04-18T04:45:43.719Z,16.40
2023-04-18T04:47:36.565Z,16.50
2023-04-18T04:49:28.495Z,16.40
2023-04-18T04:51:20.926Z,18.20
2023-04-18T04:57:12.948Z,18.90
2023-04-18T04:59:04.249Z,16.80
2023-04-18T05:00:55.729Z,17.10
2023-04-18T05:02:53.522Z,15.30
2023-04-18T05:04:45.069Z,16.60
2023-04-18T05:06:37.924Z,18.70
2023-04-18T05:08:31.063Z,19.30
2023-04-18T05:10:23.313Z,17.80
2023-04-18T05:12:14.791Z,15.00
2023-04-18T05:14:06.133Z,17.40
2023-04-18T05:15:59.548Z,18.30
2023-04-18T05:17:51.026Z,14.00
2023-04-18T05:19:48.423Z,16.30
2023-04-18T05:21:39.963Z,17.80
2023-04-18T05:23:33.082Z,18.00
2023-04-18T05:25:24.560Z,17.20
2023-04-18T05:27:17.998Z,17.30
2023-04-18T05:29:10.025Z,18.20
2023-04-18T05:31:04.008Z,18.50
2023-04-18T05:32:55.627Z,16.20
2023-04-18T05:34:48.450Z,17.70
2023-04-18T05:36:40.568Z,18.20
2023-04-18T05:38:32.030Z,16.10
2023-04-18T05:40:23.432Z,17.80
2023-04-18T05:42:14.746Z,14.40
2023-04-18T05:44:06.583Z,15.80
2023-04-18T05:45:58.190Z,16.10
2023-04-18T05:47:49.724Z,15.30
2023-04-18T05:49:41.201Z,16.80
2023-04-18T05:51:32.793Z,14.70
2023-04-18T05:53:23.981Z,16.40
2023-04-18T05:55:15.706Z,17.30
2023-04-18T05:57:07.135Z,15.30
2023-04-18T05:58:58.786Z,15.50
2023-04-18T06:00:50.164Z,17.30
2023-04-18T06:02:42.061Z,13.80
2023-04-18T06:04:34.258Z,17.80
2023-04-18T06:06:26.198Z,16.30
2023-04-18T06:08:17.860Z,15.50
2023-04-18T06:10:13.451Z,15.30
2023-04-18T06:12:05.636Z,14.00
2023-04-18T06:13:57.498Z,15.20
2023-04-18T06:15:49.416Z,14.40
2023-04-18T06:17:41.329Z,14.30
2023-04-18T06:19:33.294Z,17.80
2023-04-18T06:21:25.940Z,14.90
2023-04-18T06:23:17.315Z,11.40
2023-04-18T06:25:10.063Z,13.80
2023-04-18T06:27:02.018Z,15.90
2023-04-18T06:28:53.843Z,15.30
2023-04-18T06:30:45.261Z,15.60
2023-04-18T06:32:37.075Z,13.20
2023-04-18T06:34:28.873Z,15.40
2023-04-18T06:36:21.349Z,15.60
2023-04-18T06:38:13.213Z,15.80
2023-04-18T06:40:05.818Z,16.00
2023-04-18T06:41:58.046Z,17.20
2023-04-18T06:45:56.805Z,16.00
2023-04-18T06:47:48.960Z,16.80
2023-04-18T06:49:41.499Z,17.40
2023-04-18T06:51:34.248Z,15.30
2023-04-18T06:53:26.051Z,13.50
2023-04-18T06:55:17.833Z,16.80
2023-04-18T06:57:09.388Z,15.10
2023-04-18T06:59:00.758Z,16.10
2023-04-18T07:00:53.100Z,16.00
2023-04-18T07:02:45.031Z,15.80
2023-04-18T07:04:36.641Z,19.20
2023-04-18T07:06:28.181Z,13.30
2023-04-18T07:08:20.070Z,18.80
2023-04-18T07:10:12.057Z,14.70
2023-04-18T07:12:03.493Z,17.00
2023-04-18T07:13:55.280Z,17.80
2023-04-18T07:15:46.555Z,19.80
2023-04-18T07:17:38.468Z,16.10
2023-04-18T07:19:30.115Z,16.30
2023-04-18T07:21:21.633Z,15.90
2023-04-18T07:23:13.383Z,17.50
2023-04-18T07:25:05.215Z,18.70
2023-04-18T07:26:56.826Z,15.50
2023-04-18T07:28:49.310Z,16.30
2023-04-18T07:30:41.283Z,15.50
2023-04-18T07:32:33.247Z,16.10
2023-04-18T07:34:27.190Z,14.40
2023-04-18T07:36:18.654Z,18.50
2023-04-18T07:38:11.790Z,17.20
2023-04-18T07:40:04.495Z,12.80
2023-04-18T07:41:56.217Z,15.80
2023-04-18T07:43:47.736Z,15.00
2023-04-18T07:45:39.209Z,13.50
2023-04-18T07:47:32.254Z,15.60
2023-04-18T07:49:24.603Z,15.70
2023-04-18T07:51:16.003Z,17.00
2023-04-18T07:53:08.492Z,13.20
2023-04-18T07:55:00.136Z,13.50
2023-04-18T07:56:51.840Z,13.60
2023-04-18T07:58:43.166Z,14.20
2023-04-18T08:00:37.177Z,13.70
2023-04-18T08:02:29.287Z,11.90
2023-04-18T08:04:21.092Z,14.00
2023-04-18T08:06:12.710Z,12.40
2023-04-18T08:08:07.284Z,12.00
2023-04-18T08:09:58.899Z,14.40
2023-04-18T08:11:50.733Z,12.60
2023-04-18T08:13:42.699Z,11.30
2023-04-18T08:15:34.281Z,15.40
2023-04-18T08:17:26.092Z,13.60
2023-04-18T08:19:17.487Z,16.70
2023-04-18T08:21:08.867Z,13.40
2023-04-18T08:25:04.166Z,16.50
2023-04-18T08:26:57.630Z,16.10
2023-04-18T08:28:49.243Z,15.10
2023-04-18T08:30:42.402Z,20.90
2023-04-18T08:32:36.208Z,14.20
2023-04-18T08:34:29.304Z,15.30
2023-04-18T08:36:21.525Z,15.80
2023-04-18T08:38:13.603Z,14.50
2023-04-18T08:40:07.379Z,14.60
2023-04-18T08:42:00.124Z,11.00
2023-04-18T08:45:43.743Z,11.40
2023-04-18T08:47:35.651Z,14.20
2023-04-18T08:49:28.457Z,13.80
2023-04-18T08:51:19.960Z,12.20
2023-04-18T08:53:11.835Z,11.10
2023-04-18T08:55:03.913Z,12.20
2023-04-18T08:57:08.764Z,13.90
2023-04-18T08:59:00.241Z,10.40
2023-04-18T09:00:55.144Z,13.70
2023-04-18T09:02:47.235Z,12.80
2023-04-18T09:04:39.977Z,13.30
2023-04-18T09:06:33.531Z,12.10
2023-04-18T09:08:24.788Z,10.00
2023-04-18T09:10:36.622Z,18.90
2023-04-18T09:12:29.514Z,19.70
2023-04-18T09:14:25.962Z,21.80
2023-04-18T09:16:20.734Z,18.80
2023-04-18T09:18:12.367Z,19.60
2023-04-18T09:20:08.758Z,20.50
2023-04-18T09:22:02.360Z,21.70
2023-04-18T09:24:18.303Z,17.00
2023-04-18T09:26:10.421Z,19.00
2023-04-18T09:28:03.069Z,19.00
2023-04-18T09:32:01.229Z,16.40
2023-04-18T09:33:54.617Z,15.40
2023-04-18T09:35:47.325Z,15.90
2023-04-18T09:37:39.099Z,17.60
2023-04-18T09:39:30.712Z,15.70
2023-04-18T09:41:23.426Z,18.30
2023-04-18T09:43:20.165Z,13.70
2023-04-18T09:45:13.181Z,14.90
2023-04-18T09:47:08.283Z,17.90
2023-04-18T09:49:00.058Z,20.00
2023-04-18T09:50:52.568Z,18.80
2023-04-18T09:52:45.798Z,18.80
2023-04-18T09:54:41.201Z,21.00
2023-04-18T09:56:35.324Z,17.10
2023-04-18T09:58:30.953Z,16.80
2023-04-18T10:00:24.893Z,15.30
2023-04-18T10:02:21.143Z,18.60
2023-04-18T10:04:14.666Z,17.50
2023-04-18T10:06:50.298Z,18.50
2023-04-18T10:08:43.437Z,12.00
2023-04-18T10:10:34.794Z,14.80
2023-04-18T10:12:26.581Z,19.20
2023-04-18T10:14:18.174Z,16.10
2023-04-18T10:16:11.204Z,15.50
2023-04-18T10:18:08.523Z,15.30
2023-04-18T10:20:16.816Z,15.20
2023-04-18T10:22:08.708Z,15.60
2023-04-18T10:24:00.402Z,19.70
2023-04-18T10:25:51.884Z,18.40
2023-04-18T10:27:49.563Z,17.90
2023-04-18T10:29:51.824Z,15.20
2023-04-18T10:31:48.024Z,15.90
2023-04-18T10:33:42.772Z,17.80
2023-04-18T10:35:36.071Z,18.00
2023-04-18T10:37:28.498Z,14.50
2023-04-18T10:39:25.195Z,16.00
2023-04-18T10:41:26.033Z,16.70
2023-04-18T10:43:17.587Z,15.60
2023-04-18T10:45:19.623Z,16.40
2023-04-18T10:47:16.984Z,17.80
2023-04-18T10:49:31.166Z,16.30
2023-04-18T11:00:38.930Z,16.20
2023-04-18T11:02:32.449Z,17.90
2023-04-18T11:04:25.671Z,18.70
2023-04-18T11:06:18.236Z,17.70
2023-04-18T11:08:30.759Z,18.00
2023-04-18T11:10:24.657Z,17.50
2023-04-18T11:12:16.336Z,14.90
2023-04-18T11:14:08.122Z,20.50
2023-04-18T11:16:00.004Z,19.00
2023-04-18T11:18:17.725Z,24.00
2023-04-18T11:20:14.765Z,19.30
2023-04-18T11:22:06.755Z,18.90
2023-04-18T11:24:05.929Z,20.90
2023-04-18T11:26:03.956Z,17.20
2023-04-18T11:29:55.153Z,19.80
2023-04-18T11:31:54.584Z,19.10
2023-04-18T11:33:49.142Z,21.00
2023-04-18T11:35:42.704Z,17.90
2023-04-18T11:37:37.820Z,15.10
2023-04-18T11:39:29.886Z,16.60
2023-04-18T11:41:22.404Z,18.00
2023-04-18T11:45:12.862Z,20.70
2023-04-18T11:47:04.614Z,18.40
2023-04-18T11:48:56.535Z,16.10
2023-04-18T11:50:48.477Z,19.00
2023-04-18T11:52:41.439Z,21.70
2023-04-18T11:54:38.877Z,16.90
2023-04-18T11:56:32.249Z,17.60
2023-04-18T11:58:32.066Z,19.10
2023-04-18T12:00:38.768Z,16.60
2023-04-18T12:02:48.824Z,19.20
2023-04-18T12:04:57.798Z,20.00
2023-04-18T12:06:52.157Z,19.50
2023-04-18T12:08:44.837Z,20.40
2023-04-18T12:10:38.393Z,20.80
2023-04-18T12:12:31.095Z,22.90
2023-04-18T12:14:35.807Z,22.40
2023-04-18T12:16:30.919Z,19.00
2023-04-18T12:18:24.811Z,18.30
2023-04-18T12:20:16.597Z,23.80
2023-04-18T12:22:09.835Z,23.20
2023-04-18T12:24:16.274Z,24.90
2023-04-18T12:26:14.435Z,23.30
2023-04-18T12:28:15.875Z,22.70
2023-04-18T12:30:10.062Z,19.50
2023-04-18T12:32:02.635Z,23.50
2023-04-18T12:33:55.428Z,22.60
2023-04-18T12:35:49.557Z,19.00
2023-04-18T12:37:42.088Z,20.90
2023-04-18T12:39:34.381Z,22.80
2023-04-18T12:41:26.285Z,22.00
2023-04-18T12:43:19.062Z,24.50
2023-04-18T12:45:12.554Z,23.40
2023-04-18T12:47:04.885Z,21.20
2023-04-18T12:48:57.317Z,24.10
2023-04-18T12:52:40.872Z,26.20
2023-04-18T12:54:32.405Z,24.10
2023-04-18T12:56:23.951Z,24.10
2023-04-18T12:58:19.495Z,21.60
2023-04-18T13:00:14.963Z,24.80
2023-04-18T13:02:07.027Z,21.90
2023-04-18T13:04:10.933Z,22.40
2023-04-18T13:06:06.353Z,25.40
2023-04-18T13:08:15.082Z,22.20
2023-04-18T13:12:02.287Z,20.70
2023-04-18T13:13:56.860Z,22.00
2023-04-18T13:15:48.580Z,25.40
2023-04-18T13:17:40.707Z,17.50
2023-04-18T13:21:26.208Z,22.20
2023-04-18T13:23:17.829Z,21.40
2023-04-18T13:25:13.465Z,19.00
2023-04-18T13:27:10.697Z,21.20
2023-04-18T13:29:02.705Z,17.40
2023-04-18T13:30:54.361Z,19.90
2023-04-18T13:32:46.303Z,16.80
2023-04-18T13:34:41.844Z,21.50
2023-04-18T13:36:35.281Z,18.10
2023-04-18T13:38:28.192Z,21.00
2023-04-18T13:40:19.889Z,20.60
2023-04-18T13:42:13.533Z,21.50
2023-04-18T13:44:08.552Z,16.00
2023-04-18T13:46:00.543Z,19.60
2023-04-18T13:47:53.208Z,18.40
2023-04-18T13:49:45.255Z,21.50
2023-04-18T13:51:37.382Z,19.50
2023-04-18T13:53:31.093Z,17.90
2023-04-18T13:55:23.118Z,20.50
2023-04-18T13:57:15.176Z,17.90
2023-04-18T13:59:07.559Z,24.50
2023-04-18T14:00:59.366Z,19.70
2023-04-18T14:02:51.321Z,21.10
2023-04-18T14:04:43.304Z,20.40
2023-04-18T14:06:35.219Z,20.90
2023-04-18T14:08:27.033Z,19.20
2023-04-18T14:10:19.066Z,18.70
2023-04-18T14:12:11.081Z,20.10
2023-04-18T14:14:02.587Z,20.20
2023-04-18T14:15:54.506Z,16.20
2023-04-18T14:17:48.522Z,20.70
2023-04-18T14:19:39.985Z,17.30
2023-04-18T14:21:32.156Z,16.80
2023-04-18T14:23:23.709Z,17.00
2023-04-18T14:25:17.159Z,16.10
2023-04-18T14:27:09.018Z,15.50
2023-04-18T14:29:01.406Z,15.70
2023-04-18T14:32:47.435Z,20.80
2023-04-18T14:34:39.448Z,21.90
2023-04-18T14:36:32.761Z,22.60
2023-04-18T14:38:24.668Z,15.50
2023-04-18T14:40:17.023Z,17.90
2023-04-18T14:42:08.547Z,16.80
2023-04-18T14:44:00.485Z,16.90
2023-04-18T14:45:52.261Z,15.10
2023-04-18T14:47:44.338Z,17.20
2023-04-18T14:49:35.837Z,16.70
2023-04-18T14:51:27.811Z,15.20
2023-04-18T14:53:19.527Z,18.30
2023-04-18T14:55:10.922Z,19.80
2023-04-18T14:57:02.601Z,17.60
2023-04-18T14:58:53.798Z,18.10
2023-04-18T15:00:45.486Z,18.10
2023-04-18T15:02:37.179Z,15.10
2023-04-18T15:04:28.983Z,16.40
2023-04-18T15:06:20.674Z,17.70
2023-04-18T15:08:26.326Z,15.60
2023-04-18T15:10:22.578Z,15.10
2023-04-18T15:12:16.008Z,16.10
2023-04-18T15:14:08.944Z,15.90
2023-04-18T15:16:01.591Z,12.80
2023-04-18T15:17:53.581Z,15.30
2023-04-18T15:19:45.453Z,16.90
2023-04-18T15:21:36.913Z,17.20
2023-04-18T15:23:28.922Z,21.30
2023-04-18T15:25:20.890Z,17.10
2023-04-18T15:27:12.385Z,17.50
2023-04-18T15:29:04.038Z,16.40
2023-04-18T15:30:55.799Z,16.10
2023-04-18T15:32:49.135Z,16.30
2023-04-18T15:34:41.252Z,14.40
2023-04-18T15:36:33.386Z,13.40
2023-04-18T15:38:25.444Z,14.90
2023-04-18T15:40:18.821Z,16.10
2023-04-18T15:42:10.680Z,15.30
2023-04-18T15:44:03.009Z,16.20
2023-04-18T15:47:46.266Z,16.00
2023-04-18T15:49:37.991Z,17.70
2023-04-18T15:51:30.497Z,15.80
2023-04-18T15:53:22.223Z,16.30
2023-04-18T15:55:14.199Z,15.00
2023-04-18T15:57:05.810Z,15.30
2023-04-18T15:58:59.242Z,16.80
2023-04-18T16:00:51.486Z,19.30
2023-04-18T16:02:46.130Z,15.30
2023-04-18T16:04:38.203Z,13.50
2023-04-18T16:06:31.445Z,16.10
2023-04-18T16:08:26.272Z,16.00
2023-04-18T16:10:18.167Z,17.80
2023-04-18T16:12:10.030Z,18.00
2023-04-18T16:14:01.331Z,15.30
2023-04-18T16:15:53.145Z,19.40
2023-04-18T16:17:45.589Z,16.20
2023-04-18T16:19:41.071Z,18.00
2023-04-18T16:21:32.622Z,17.10
2023-04-18T16:23:25.656Z,18.40
2023-04-18T16:25:17.432Z,18.70
2023-04-18T16:27:09.145Z,18.10
2023-04-18T16:29:01.316Z,16.70
2023-04-18T16:30:55.370Z,18.00
2023-04-18T16:32:47.187Z,17.50
2023-04-18T16:34:38.852Z,20.40
2023-04-18T16:36:34.519Z,18.00
2023-04-18T16:38:27.333Z,18.00
2023-04-18T16:40:19.207Z,19.80
2023-04-18T16:42:11.658Z,17.70
2023-04-18T16:44:04.886Z,18.60
2023-04-18T16:45:57.648Z,19.00
2023-04-18T16:47:49.458Z,17.40
2023-04-18T16:49:43.560Z,20.90
2023-04-18T16:51:37.258Z,20.90
2023-04-18T16:53:29.020Z,16.20
2023-04-18T16:55:20.600Z,21.30
2023-04-18T16:57:12.671Z,17.60
2023-04-18T16:59:04.301Z,20.00
2023-04-18T17:00:55.919Z,18.00
2023-04-18T17:02:48.539Z,18.20
2023-04-18T17:06:32.686Z,22.20
2023-04-18T17:08:25.941Z,22.40
2023-04-18T17:10:20.630Z,18.60
2023-04-18T17:12:12.182Z,19.40
2023-04-18T17:14:04.220Z,20.20
2023-04-18T17:15:56.464Z,22.10
2023-04-18T17:27:15.485Z,21.00
2023-04-18T17:29:07.116Z,20.70
2023-04-18T17:31:01.397Z,20.20
2023-04-18T17:32:53.511Z,21.00
2023-04-18T17:34:45.632Z,22.90
2023-04-18T17:36:37.126Z,19.40
2023-04-18T17:38:28.868Z,20.80
2023-04-18T17:40:20.484Z,22.20
2023-04-18T17:42:12.614Z,18.70
2023-04-18T17:44:05.437Z,19.10
2023-04-18T17:45:59.438Z,21.60
2023-04-18T17:47:51.409Z,20.90
